createdAt,value
2022-08-11T00:02:01.917Z,54.46
2022-08-11T00:04:37.841Z,54.66
2022-08-11T00:07:07.351Z,54.92
2022-08-11T00:09:39.469Z,54.94
2022-08-11T00:12:16.132Z,55.09
2022-08-11T00:14:44.839Z,54.99
2022-08-11T00:17:15.889Z,55.13
2022-08-11T00:20:13.866Z,55.05
2022-08-11T00:22:41.793Z,55.19
2022-08-11T00:25:16.659Z,55.22
2022-08-11T00:27:45.588Z,55.05
2022-08-11T00:30:14.992Z,55.41
2022-08-11T00:32:52.314Z,55.61
2022-08-11T00:35:55.222Z,55.96
2022-08-11T00:38:27.539Z,56.11
2022-08-11T00:41:16.056Z,56.19
2022-08-11T00:44:23.883Z,55.97
2022-08-11T00:47:13.697Z,56.11
2022-08-11T00:50:17.987Z,56.56
2022-08-11T00:53:16.370Z,56.52
2022-08-11T00:56:18.861Z,56.37
2022-08-11T00:59:39.235Z,56.39
2022-08-11T01:02:21.010Z,56.59
2022-08-11T01:05:38.567Z,56.90
2022-08-11T01:08:55.777Z,56.93
2022-08-11T01:11:55.421Z,57.15
2022-08-11T01:14:52.809Z,56.91
2022-08-11T01:18:28.740Z,56.92
2022-08-11T01:21:18.076Z,57.27
2022-08-11T01:24:46.695Z,57.15
2022-08-11T01:27:44.581Z,57.57
2022-08-11T01:30:56.574Z,57.53
2022-08-11T01:34:01.405Z,57.61
2022-08-11T01:37:14.400Z,57.58
2022-08-11T01:40:12.817Z,57.93
2022-08-11T01:43:10.766Z,58.11
2022-08-11T01:46:10.902Z,58.00
2022-08-11T01:50:06.931Z,58.03
2022-08-11T01:52:33.290Z,58.18
2022-08-11T01:55:37.278Z,57.47
2022-08-11T01:58:16.935Z,57.22
2022-08-11T02:01:20.590Z,57.81
2022-08-11T02:04:26.891Z,57.98
2022-08-11T02:07:18.689Z,58.17
2022-08-11T02:10:35.379Z,57.22
2022-08-11T02:13:36.557Z,57.76
2022-08-11T02:16:30.846Z,58.41
2022-08-11T02:20:00.538Z,58.74
2022-08-11T02:23:10.013Z,59.21
2022-08-11T02:25:59.994Z,59.22
2022-08-11T02:28:38.992Z,59.32
2022-08-11T02:32:15.425Z,59.22
2022-08-11T02:35:00.764Z,59.56
2022-08-11T02:37:34.067Z,59.53
2022-08-11T02:40:34.387Z,59.86
2022-08-11T02:43:50.768Z,59.81
2022-08-11T02:46:44.416Z,60.09
2022-08-11T02:50:06.331Z,60.41
2022-08-11T02:53:22.627Z,60.19
2022-08-11T02:56:10.866Z,60.61
2022-08-11T02:59:13.030Z,60.91
2022-08-11T03:02:30.283Z,60.73
2022-08-11T03:04:57.598Z,60.90
2022-08-11T03:07:46.736Z,61.09
2022-08-11T03:10:25.623Z,61.18
2022-08-11T03:13:39.766Z,61.60
2022-08-11T03:16:47.149Z,61.80
2022-08-11T03:19:43.620Z,61.63
2022-08-11T03:22:40.219Z,62.00
2022-08-11T03:25:34.698Z,62.36
2022-08-11T03:28:35.398Z,62.64
2022-08-11T03:31:29.509Z,62.62
2022-08-11T03:34:10.380Z,62.94
2022-08-11T03:37:17.004Z,63.00
2022-08-11T03:40:03.441Z,63.41
2022-08-11T03:42:43.572Z,63.35
2022-08-11T03:45:57.276Z,63.49
2022-08-11T03:49:07.442Z,63.50
2022-08-11T03:52:11.480Z,63.39
2022-08-11T03:54:52.465Z,63.96
2022-08-11T03:58:02.387Z,64.05
2022-08-11T04:00:55.861Z,64.16
2022-08-11T04:03:57.729Z,64.21
2022-08-11T04:07:05.215Z,64.30
2022-08-11T04:10:24.058Z,64.61
2022-08-11T04:13:18.807Z,64.90
2022-08-11T04:16:11.609Z,64.67
2022-08-11T04:19:11.152Z,64.73
2022-08-11T04:22:17.063Z,64.72
2022-08-11T04:25:05.682Z,65.36
2022-08-11T04:28:18.892Z,64.86
2022-08-11T04:31:50.327Z,65.29
2022-08-11T04:34:41.269Z,65.01
2022-08-11T04:37:36.366Z,65.49
2022-08-11T04:40:25.612Z,65.39
2022-08-11T04:43:36.739Z,65.92
2022-08-11T04:46:52.023Z,65.88
2022-08-11T04:50:32.558Z,66.23
2022-08-11T04:53:44.196Z,66.21
2022-08-11T04:56:43.208Z,66.63
2022-08-11T05:00:32.157Z,66.92
2022-08-11T05:03:22.151Z,67.13
2022-08-11T05:06:24.783Z,67.29
2022-08-11T05:09:27.748Z,67.37
2022-08-11T05:12:29.896Z,67.67
2022-08-11T05:15:18.273Z,67.92
2022-08-11T05:18:31.978Z,67.95
2022-08-11T05:21:28.516Z,67.84
2022-08-11T05:24:39.363Z,67.89
2022-08-11T05:27:30.985Z,68.34
2022-08-11T05:30:24.458Z,68.11
2022-08-11T05:33:49.356Z,68.09
2022-08-11T05:36:37.387Z,68.28
2022-08-11T05:39:36.716Z,68.36
2022-08-11T05:42:29.813Z,68.76
2022-08-11T05:46:02.694Z,69.06
2022-08-11T05:48:40.907Z,69.39
2022-08-11T05:51:30.540Z,69.65
2022-08-11T05:54:28.414Z,69.81
2022-08-11T05:57:01.191Z,69.92
2022-08-11T05:59:31.306Z,69.66
2022-08-11T06:02:08.657Z,70.02
2022-08-11T06:04:38.212Z,70.04
2022-08-11T06:07:09.795Z,69.79
2022-08-11T06:09:46.802Z,69.38
2022-08-11T06:12:22.714Z,69.73
2022-08-11T06:14:56.003Z,69.75
2022-08-11T06:17:27.656Z,69.59
2022-08-11T06:20:13.083Z,69.13
2022-08-11T06:22:52.346Z,68.66
2022-08-11T06:25:21.592Z,68.49
2022-08-11T06:27:56.442Z,68.45
2022-08-11T06:30:40.810Z,68.09
2022-08-11T06:33:29.586Z,67.62
2022-08-11T06:36:14.042Z,67.25
2022-08-11T06:39:20.288Z,66.81
2022-08-11T06:42:10.752Z,66.21
2022-08-11T06:45:07.326Z,65.78
2022-08-11T06:47:36.336Z,65.11
2022-08-11T06:50:28.878Z,64.71
2022-08-11T06:52:57.287Z,64.53
2022-08-11T06:55:57.615Z,64.08
2022-08-11T06:58:51.681Z,63.26
2022-08-11T07:01:49.610Z,62.11
2022-08-11T07:04:48.090Z,61.48
2022-08-11T07:08:33.959Z,60.62
2022-08-11T07:12:07.063Z,60.14
2022-08-11T07:14:58.933Z,59.51
2022-08-11T07:17:34.981Z,58.13
2022-08-11T07:20:25.183Z,57.95
2022-08-11T07:23:17.968Z,57.00
2022-08-11T07:26:11.546Z,56.28
2022-08-11T07:28:56.083Z,55.28
2022-08-11T07:31:31.667Z,55.29
2022-08-11T07:34:28.114Z,54.90
2022-08-11T07:37:00.185Z,54.12
2022-08-11T07:39:33.266Z,53.49
2022-08-11T07:42:07.788Z,52.88
2022-08-11T07:44:56.932Z,53.17
2022-08-11T07:48:04.810Z,53.02
2022-08-11T07:50:56.014Z,52.64
2022-08-11T07:53:24.884Z,51.66
2022-08-11T07:55:56.049Z,51.04
2022-08-11T07:58:53.375Z,50.43
2022-08-11T08:01:45.432Z,49.75
2022-08-11T08:04:35.966Z,49.33
2022-08-11T08:07:24.501Z,49.04
2022-08-11T08:10:15.877Z,48.19
2022-08-11T08:13:03.535Z,47.79
2022-08-11T08:15:50.403Z,46.84
2022-08-11T08:18:26.675Z,46.84
2022-08-11T08:21:12.018Z,47.73
2022-08-11T08:23:44.397Z,46.26
2022-08-11T08:26:35.079Z,46.11
2022-08-11T08:29:26.549Z,47.17
2022-08-11T08:31:56.684Z,46.98
2022-08-11T08:34:25.401Z,45.06
2022-08-11T08:36:53.458Z,43.72
2022-08-11T08:39:22.857Z,43.25
2022-08-11T08:41:57.724Z,42.76
2022-08-11T08:44:38.445Z,43.13
2022-08-11T08:47:16.838Z,43.23
2022-08-11T08:50:19.966Z,42.19
2022-08-11T08:52:58.089Z,42.77
2022-08-11T08:55:29.081Z,43.17
2022-08-11T08:58:00.584Z,42.15
2022-08-11T09:00:42.586Z,41.36
2022-08-11T09:03:38.930Z,41.47
2022-08-11T09:05:58.952Z,41.55
2022-08-11T09:08:27.608Z,42.11
2022-08-11T09:11:16.123Z,41.77
2022-08-11T09:13:46.806Z,41.80
2022-08-11T09:16:34.936Z,40.82
2022-08-11T09:19:03.838Z,40.57
2022-08-11T09:21:46.416Z,40.59
2022-08-11T09:24:38.453Z,40.43
2022-08-11T09:27:10.759Z,39.84
2022-08-11T09:29:38.732Z,40.71
2022-08-11T09:32:08.364Z,39.67
2022-08-11T09:34:39.274Z,39.62
2022-08-11T09:37:53.582Z,39.08
2022-08-11T09:40:32.468Z,38.69
2022-08-11T09:43:28.692Z,38.17
2022-08-11T09:45:59.200Z,38.28
2022-08-11T09:48:32.663Z,37.42
2022-08-11T09:51:02.390Z,37.07
2022-08-11T09:53:40.942Z,36.67
2022-08-11T09:56:38.070Z,37.36
2022-08-11T09:59:06.842Z,37.18
2022-08-11T10:01:55.134Z,37.04
2022-08-11T10:04:48.437Z,36.42
2022-08-11T10:07:20.394Z,36.71
2022-08-11T10:10:02.213Z,36.68
2022-08-11T10:12:37.251Z,36.06
2022-08-11T10:15:31.461Z,35.40
2022-08-11T10:18:26.770Z,35.39
2022-08-11T10:21:06.899Z,35.34
2022-08-11T10:24:00.662Z,35.38
2022-08-11T10:26:53.714Z,33.97
2022-08-11T10:29:56.490Z,34.52
2022-08-11T10:32:59.436Z,34.52
2022-08-11T10:35:31.538Z,34.11
2022-08-11T10:38:08.621Z,34.20
2022-08-11T10:40:40.859Z,35.05
2022-08-11T10:43:14.057Z,34.00
2022-08-11T10:46:05.433Z,33.36
2022-08-11T10:48:38.822Z,32.36
2022-08-11T10:51:14.187Z,32.25
2022-08-11T10:54:05.236Z,32.66
2022-08-11T10:56:56.032Z,33.49
2022-08-11T10:59:28.023Z,31.86
2022-08-11T11:01:56.573Z,32.21
2022-08-11T11:05:31.451Z,31.70
2022-08-11T11:08:32.891Z,32.03
2022-08-11T11:11:06.385Z,30.44
2022-08-11T11:13:55.554Z,29.81
2022-08-11T11:16:44.980Z,30.72
2022-08-11T11:19:19.260Z,30.24
2022-08-11T11:22:15.483Z,29.99
2022-08-11T11:25:12.787Z,30.36
2022-08-11T11:27:53.394Z,30.74
2022-08-11T11:30:27.087Z,29.70
2022-08-11T11:34:06.462Z,29.15
2022-08-11T11:36:50.633Z,29.08
2022-08-11T11:39:23.778Z,28.86
2022-08-11T11:41:57.026Z,28.99
2022-08-11T11:44:25.981Z,29.65
2022-08-11T11:46:57.913Z,28.10
2022-08-11T11:49:29.695Z,28.90
2022-08-11T11:52:00.130Z,28.99
2022-08-11T11:54:33.925Z,28.10
2022-08-11T11:57:22.835Z,28.27
2022-08-11T12:00:11.901Z,28.28
2022-08-11T12:02:41.213Z,27.56
2022-08-11T12:05:11.227Z,27.44
2022-08-11T12:08:05.091Z,26.96
2022-08-11T12:10:47.202Z,27.40
2022-08-11T12:13:37.276Z,27.67
2022-08-11T12:16:34.517Z,28.31
2022-08-11T12:19:00.270Z,26.63
2022-08-11T12:21:29.671Z,26.44
2022-08-11T12:24:19.740Z,27.47
2022-08-11T12:27:14.848Z,27.54
2022-08-11T12:29:41.232Z,27.31
2022-08-11T12:32:15.338Z,26.91
2022-08-11T12:34:44.848Z,27.00
2022-08-11T12:37:16.422Z,26.83
2022-08-11T12:40:42.668Z,26.65
2022-08-11T12:43:36.913Z,26.41
2022-08-11T12:46:16.768Z,25.25
2022-08-11T12:49:09.931Z,25.43
2022-08-11T12:52:13.614Z,24.99
2022-08-11T12:54:54.328Z,25.01
2022-08-11T12:57:58.262Z,25.24
2022-08-11T13:00:46.929Z,25.51
2022-08-11T13:03:33.894Z,24.67
2022-08-11T13:06:04.541Z,25.25
2022-08-11T13:08:36.938Z,25.15
2022-08-11T13:11:24.338Z,24.85
2022-08-11T13:13:57.733Z,23.76
2022-08-11T13:16:54.530Z,23.84
2022-08-11T13:19:24.133Z,23.81
2022-08-11T13:21:53.393Z,23.95
2022-08-11T13:24:23.161Z,24.48
2022-08-11T13:26:51.712Z,24.32
2022-08-11T13:29:26.527Z,24.27
2022-08-11T13:31:58.251Z,24.13
2022-08-11T13:34:28.723Z,25.03
2022-08-11T13:37:00.987Z,25.17
2022-08-11T13:39:32.136Z,25.19
2022-08-11T13:42:02.530Z,24.43
2022-08-11T13:44:35.974Z,24.31
2022-08-11T13:47:07.851Z,24.15
2022-08-11T13:49:39.540Z,24.47
2022-08-11T13:52:14.151Z,24.45
2022-08-11T13:54:44.169Z,23.86
2022-08-11T13:58:06.271Z,23.87
2022-08-11T14:00:13.324Z,24.28
2022-08-11T14:02:55.675Z,24.14
2022-08-11T14:05:29.371Z,23.76
2022-08-11T14:08:07.678Z,24.22
2022-08-11T14:10:39.670Z,23.11
2022-08-11T14:13:42.199Z,22.81
2022-08-11T14:16:42.889Z,22.96
2022-08-11T14:19:14.461Z,23.09
2022-08-11T14:22:08.641Z,22.98
2022-08-11T14:24:49.720Z,23.04
2022-08-11T14:27:39.089Z,23.50
2022-08-11T14:30:27.332Z,22.82
2022-08-11T14:32:57.292Z,23.70
2022-08-11T14:35:28.789Z,23.33
2022-08-11T14:37:59.154Z,23.09
2022-08-11T14:40:45.736Z,23.59
2022-08-11T14:44:04.865Z,22.97
2022-08-11T14:46:38.693Z,22.57
2022-08-11T14:49:06.762Z,22.58
2022-08-11T14:51:35.117Z,22.68
2022-08-11T14:54:22.385Z,22.75
2022-08-11T14:56:50.250Z,22.54
2022-08-11T14:59:17.910Z,22.67
2022-08-11T15:02:04.293Z,22.47
2022-08-11T15:04:36.546Z,22.14
2022-08-11T15:07:05.639Z,22.78
2022-08-11T15:10:11.652Z,22.50
2022-08-11T15:12:37.174Z,22.80
2022-08-11T15:15:26.350Z,22.80
2022-08-11T15:17:58.684Z,22.79
2022-08-11T15:20:47.669Z,22.50
2022-08-11T15:23:40.320Z,22.60
2022-08-11T15:26:15.424Z,22.17
2022-08-11T15:29:12.146Z,22.34
2022-08-11T15:31:49.133Z,22.70
2022-08-11T15:34:40.858Z,22.15
2022-08-11T15:37:26.895Z,22.15
2022-08-11T15:40:30.008Z,22.42
2022-08-11T15:43:33.625Z,23.07
2022-08-11T15:46:11.787Z,21.95
2022-08-11T15:49:03.794Z,21.61
2022-08-11T15:52:01.568Z,21.67
2022-08-11T15:54:33.666Z,21.05
2022-08-11T15:57:05.602Z,21.12
2022-08-11T15:59:56.713Z,21.98
2022-08-11T16:02:36.135Z,22.68
2022-08-11T16:05:11.758Z,22.67
2022-08-11T16:07:43.286Z,22.03
2022-08-11T16:10:19.562Z,22.20
2022-08-11T16:13:07.722Z,22.09
2022-08-11T16:16:08.151Z,22.60
2022-08-11T16:19:01.542Z,22.03
2022-08-11T16:21:40.055Z,21.98
2022-08-11T16:27:04.503Z,22.15
2022-08-11T16:27:13.592Z,22.32
2022-08-11T16:29:47.975Z,22.82
2022-08-11T16:32:23.224Z,22.99
2022-08-11T16:35:27.977Z,22.45
2022-08-11T16:38:16.165Z,22.38
2022-08-11T16:40:46.948Z,22.28
2022-08-11T16:43:39.569Z,22.72
2022-08-11T16:46:27.801Z,22.80
2022-08-11T16:48:57.936Z,22.48
2022-08-11T16:51:28.855Z,22.87
2022-08-11T16:54:05.844Z,22.36
2022-08-11T16:56:54.040Z,22.99
2022-08-11T16:59:31.851Z,22.94
2022-08-11T17:02:11.787Z,22.55
2022-08-11T17:05:18.584Z,22.79
2022-08-11T17:08:05.583Z,23.08
2022-08-11T17:11:06.857Z,23.28
2022-08-11T17:13:44.655Z,23.32
2022-08-11T17:16:19.283Z,23.85
2022-08-11T17:19:08.844Z,23.88
2022-08-11T17:22:06.156Z,24.05
2022-08-11T17:24:43.747Z,24.56
2022-08-11T17:27:17.069Z,24.07
2022-08-11T17:29:56.557Z,23.69
2022-08-11T17:32:55.625Z,24.13
2022-08-11T17:35:32.801Z,23.74
2022-08-11T17:38:14.656Z,24.47
2022-08-11T17:41:06.701Z,24.72
2022-08-11T17:43:53.303Z,24.60
2022-08-11T17:46:40.340Z,25.01
2022-08-11T17:49:13.844Z,25.09
2022-08-11T17:52:03.884Z,24.28
2022-08-11T17:54:52.924Z,24.25
2022-08-11T17:57:47.661Z,24.16
2022-08-11T18:00:17.067Z,23.51
2022-08-11T18:03:06.709Z,24.16
2022-08-11T18:05:43.537Z,24.59
2022-08-11T18:08:33.289Z,24.26
2022-08-11T18:12:06.756Z,24.63
2022-08-11T18:14:31.237Z,24.94
2022-08-11T18:17:17.694Z,25.13
2022-08-11T18:20:04.227Z,25.02
2022-08-11T18:22:56.869Z,25.14
2022-08-11T18:25:51.590Z,25.09
2022-08-11T18:28:48.802Z,25.46
2022-08-11T18:31:39.371Z,26.07
2022-08-11T18:34:32.357Z,26.06
2022-08-11T18:37:29.525Z,26.06
2022-08-11T18:40:22.471Z,26.29
2022-08-11T18:43:13.567Z,27.10
2022-08-11T18:46:06.751Z,27.15
2022-08-11T18:48:58.703Z,27.54
2022-08-11T18:51:46.987Z,28.29
2022-08-11T18:54:35.984Z,28.91
2022-08-11T18:57:26.533Z,28.91
2022-08-11T19:00:18.082Z,29.02
2022-08-11T19:03:09.181Z,29.37
2022-08-11T19:06:37.303Z,29.16
2022-08-11T19:09:13.465Z,30.32
2022-08-11T19:12:01.953Z,30.82
2022-08-11T19:14:53.345Z,30.95
2022-08-11T19:17:45.958Z,31.36
2022-08-11T19:20:38.198Z,31.83
2022-08-11T19:23:29.677Z,32.66
2022-08-11T19:26:18.850Z,33.00
2022-08-11T19:29:08.881Z,33.71
2022-08-11T19:32:18.249Z,33.68
2022-08-11T19:35:07.914Z,34.35
2022-08-11T19:37:57.172Z,34.68
2022-08-11T19:40:44.074Z,34.82
2022-08-11T19:43:32.568Z,35.16
2022-08-11T19:46:20.757Z,35.31
2022-08-11T19:49:12.849Z,35.92
2022-08-11T19:52:02.556Z,35.94
2022-08-11T19:54:52.864Z,36.08
2022-08-11T19:57:43.409Z,36.18
2022-08-11T20:00:38.919Z,36.45
2022-08-11T20:03:29.711Z,36.40
2022-08-11T20:06:23.513Z,36.86
2022-08-11T20:09:14.759Z,37.03
2022-08-11T20:12:11.833Z,37.11
2022-08-11T20:15:01.893Z,37.49
2022-08-11T20:17:57.678Z,37.80
2022-08-11T20:20:46.631Z,37.79
2022-08-11T20:23:36.582Z,38.23
2022-08-11T20:26:31.117Z,38.72
2022-08-11T20:29:20.382Z,39.45
2022-08-11T20:32:09.292Z,39.35
2022-08-11T20:34:57.999Z,39.59
2022-08-11T20:37:50.750Z,40.01
2022-08-11T20:40:44.300Z,40.08
2022-08-11T20:44:08.349Z,40.46
2022-08-11T20:46:48.104Z,40.81
2022-08-11T20:52:48.608Z,41.33
2022-08-11T20:55:51.998Z,41.65
2022-08-11T20:59:13.412Z,41.78
2022-08-11T21:01:52.159Z,42.05
2022-08-11T21:04:54.910Z,42.72
2022-08-11T21:07:55.456Z,43.11
2022-08-11T21:10:57.686Z,43.15
2022-08-11T21:13:53.514Z,43.20
2022-08-11T21:16:53.864Z,43.45
2022-08-11T21:20:01.893Z,43.41
2022-08-11T21:23:05.236Z,43.73
2022-08-11T21:26:03.891Z,43.91
2022-08-11T21:28:53.543Z,43.93
2022-08-11T21:31:42.534Z,44.04
2022-08-11T21:34:37.210Z,44.23
2022-08-11T21:37:26.365Z,44.73
2022-08-11T21:40:17.522Z,44.52
2022-08-11T21:43:07.274Z,44.74
2022-08-11T21:45:57.683Z,44.94
2022-08-11T21:48:48.448Z,45.31
2022-08-11T21:51:34.505Z,45.19
2022-08-11T21:54:22.154Z,45.10
2022-08-11T21:57:09.541Z,45.23
2022-08-11T22:00:09.650Z,45.66
2022-08-11T22:03:03.406Z,45.59
2022-08-11T22:05:53.304Z,45.32
2022-08-11T22:08:39.324Z,45.53
2022-08-11T22:11:32.345Z,45.70
2022-08-11T22:14:22.410Z,45.91
2022-08-11T22:17:09.435Z,45.58
2022-08-11T22:20:00.683Z,45.85
2022-08-11T22:22:52.230Z,44.81
2022-08-11T22:25:50.831Z,45.62
2022-08-11T22:28:38.759Z,45.98
2022-08-11T22:31:28.407Z,46.07
2022-08-11T22:34:14.928Z,46.14
2022-08-11T22:37:04.789Z,46.28
2022-08-11T22:40:01.632Z,46.50
2022-08-11T22:42:52.906Z,46.63
2022-08-11T22:45:41.477Z,46.83
2022-08-11T22:48:30.478Z,47.16
2022-08-11T22:51:18.992Z,47.20
2022-08-11T22:54:08.017Z,47.36
2022-08-11T22:56:55.032Z,47.32
2022-08-11T22:59:43.068Z,47.69
2022-08-11T23:02:30.605Z,47.77
2022-08-11T23:05:24.244Z,48.04
2022-08-11T23:08:10.884Z,48.35
2022-08-11T23:10:59.184Z,48.34
2022-08-11T23:13:47.165Z,48.00
2022-08-11T23:16:33.501Z,48.58
2022-08-11T23:20:08.361Z,48.52
2022-08-11T23:22:36.723Z,48.43
2022-08-11T23:25:29.888Z,48.54
2022-08-11T23:28:19.870Z,48.67
2022-08-11T23:31:09.389Z,48.63
2022-08-11T23:34:00.888Z,48.77
2022-08-11T23:36:47.994Z,48.68
2022-08-11T23:39:35.391Z,49.04
2022-08-11T23:42:26.286Z,48.91
2022-08-11T23:45:17.474Z,48.81
2022-08-11T23:48:06.924Z,48.70
2022-08-11T23:50:54.255Z,48.82
2022-08-11T23:53:40.590Z,48.87
2022-08-11T23:56:29.246Z,48.98
2022-08-11T23:59:23.779Z,49.12
